createdAt,value
2016-02-22T00:00:20.129Z,997.61
2016-02-22T00:01:20.117Z,997.8
2016-02-22T00:02:20.088Z,997.58
2016-02-22T00:03:20.059Z,997.67
2016-02-22T00:04:20.046Z,997.83
2016-02-22T00:05:20.021Z,997.61
2016-02-22T00:06:19.992Z,997.68
2016-02-22T00:07:19.964Z,997.82
2016-02-22T00:08:19.950Z,997.73
2016-02-22T00:09:19.923Z,997.7
2016-02-22T00:10:19.909Z,997.67
2016-02-22T00:11:19.881Z,997.6
2016-02-22T00:12:19.852Z,997.66
2016-02-22T00:13:19.823Z,997.49
2016-02-22T00:14:19.811Z,997.62
2016-02-22T00:15:19.797Z,997.52
2016-02-22T00:16:19.758Z,997.53
2016-02-22T00:17:19.730Z,997.6
2016-02-22T00:18:19.717Z,997.49
2016-02-22T00:19:19.688Z,997.54
2016-02-22T00:20:19.660Z,997.54
2016-02-22T00:21:19.646Z,997.37
2016-02-22T00:22:19.634Z,997.37
2016-02-22T00:23:19.590Z,997.34
2016-02-22T00:24:19.577Z,997.32
2016-02-22T00:25:19.548Z,997.22
2016-02-22T00:26:19.520Z,997.22
2016-02-22T00:27:19.491Z,997.29
2016-02-22T00:28:19.478Z,997.25
2016-02-22T00:29:19.449Z,997.05
2016-02-22T00:30:19.421Z,997.22
2016-02-22T00:31:19.409Z,997.27
2016-02-22T00:32:19.379Z,997.25
2016-02-22T00:33:19.351Z,997.22
2016-02-22T00:34:19.337Z,997.2
2016-02-22T00:35:19.309Z,997.25
2016-02-22T00:36:19.281Z,997.24
2016-02-22T00:37:19.267Z,997.53
2016-02-22T00:38:19.239Z,997.23
2016-02-22T00:39:19.211Z,997.23
2016-02-22T00:40:19.198Z,997.13
2016-02-22T00:41:19.169Z,997.2
2016-02-22T00:42:19.141Z,997.12
2016-02-22T00:43:19.128Z,997.19
2016-02-22T00:44:19.100Z,997.17
2016-02-22T00:45:19.071Z,997.08
2016-02-22T00:46:19.057Z,997.11
2016-02-22T00:47:19.030Z,997.21
2016-02-22T00:48:19.000Z,997.06
2016-02-22T00:49:18.988Z,997.05
2016-02-22T00:50:18.959Z,997.12
2016-02-22T00:51:18.931Z,996.97
2016-02-22T00:52:19.011Z,996.99
2016-02-22T00:53:18.888Z,996.93
2016-02-22T00:54:18.860Z,996.95
2016-02-22T00:55:18.848Z,996.97
2016-02-22T00:56:18.819Z,997.08
2016-02-22T00:57:18.790Z,996.95
2016-02-22T00:58:18.777Z,996.86
2016-02-22T00:59:18.748Z,996.84
2016-02-22T01:00:18.721Z,996.92
2016-02-22T01:01:18.707Z,996.89
2016-02-22T01:02:18.678Z,997.08
2016-02-22T01:03:18.651Z,996.89
2016-02-22T01:04:18.638Z,996.96
2016-02-22T01:05:18.625Z,996.97
2016-02-22T01:06:18.580Z,996.99
2016-02-22T01:07:18.568Z,996.88
2016-02-22T01:08:18.570Z,996.98
2016-02-22T01:09:18.511Z,996.91
2016-02-22T01:10:18.497Z,996.9
2016-02-22T01:11:18.469Z,997.03
2016-02-22T01:12:18.439Z,997.11
2016-02-22T01:13:18.411Z,996.94
2016-02-22T01:14:18.399Z,996.85
2016-02-22T01:15:18.370Z,996.92
2016-02-22T01:16:18.357Z,996.99
2016-02-22T01:17:18.328Z,996.8
2016-02-22T01:18:18.300Z,996.77
2016-02-22T01:19:18.287Z,996.7
2016-02-22T01:20:18.258Z,996.81
2016-02-22T01:21:18.246Z,996.83
2016-02-22T01:22:18.201Z,996.73
2016-02-22T01:23:18.188Z,996.74
2016-02-22T01:24:18.160Z,996.79
2016-02-22T01:25:18.146Z,996.69
2016-02-22T01:26:18.118Z,996.65
2016-02-22T01:27:18.090Z,996.57
2016-02-22T01:28:18.062Z,996.82
2016-02-22T01:29:18.048Z,996.59
2016-02-22T01:30:18.020Z,996.7
2016-02-22T01:31:17.991Z,996.6
2016-02-22T01:32:17.962Z,996.89
2016-02-22T01:33:17.950Z,996.65
2016-02-22T01:34:17.921Z,996.64
2016-02-22T01:35:17.908Z,996.67
2016-02-22T01:36:17.879Z,996.73
2016-02-22T01:37:17.851Z,996.76
2016-02-22T01:38:17.839Z,996.76
2016-02-22T01:39:17.809Z,996.67
2016-02-22T01:40:17.781Z,996.68
2016-02-22T01:41:17.753Z,996.75
2016-02-22T01:42:17.739Z,996.63
2016-02-22T01:43:17.711Z,996.55
2016-02-22T01:44:17.698Z,996.62
2016-02-22T01:45:17.669Z,996.62
2016-02-22T01:46:17.641Z,996.8
2016-02-22T01:47:17.613Z,996.62
2016-02-22T01:48:17.616Z,996.64
2016-02-22T01:49:17.633Z,996.67
2016-02-22T01:50:17.542Z,996.64
2016-02-22T01:51:17.530Z,996.64
2016-02-22T01:52:17.501Z,996.6
2016-02-22T01:53:17.488Z,996.58
2016-02-22T01:54:17.444Z,996.44
2016-02-22T01:55:17.430Z,996.5
2016-02-22T01:56:17.418Z,996.42
2016-02-22T01:57:17.390Z,996.6
2016-02-22T01:58:17.360Z,996.51
2016-02-22T01:59:17.332Z,996.46
2016-02-22T02:00:17.319Z,996.56
2016-02-22T02:01:17.290Z,996.61
2016-02-22T02:02:17.262Z,996.4
2016-02-22T02:03:17.234Z,996.49
2016-02-22T02:04:17.221Z,996.36
2016-02-22T02:05:17.192Z,996.43
2016-02-22T02:06:17.164Z,996.54
2016-02-22T02:07:17.167Z,996.57
2016-02-22T02:08:17.122Z,996.58
2016-02-22T02:09:17.109Z,996.53
2016-02-22T02:10:17.081Z,996.51
2016-02-22T02:11:17.052Z,996.57
2016-02-22T02:12:17.023Z,996.65
2016-02-22T02:13:17.011Z,996.55
2016-02-22T02:14:16.981Z,996.63
2016-02-22T02:15:16.953Z,996.45
2016-02-22T02:16:16.940Z,996.53
2016-02-22T02:17:16.911Z,996.5
2016-02-22T02:18:16.883Z,996.62
2016-02-22T02:19:16.869Z,996.45
2016-02-22T02:20:16.841Z,996.45
2016-02-22T02:21:16.813Z,996.47
2016-02-22T02:22:16.800Z,996.61
2016-02-22T02:23:16.771Z,996.52
2016-02-22T02:24:16.744Z,996.41
2016-02-22T02:25:16.715Z,996.46
2016-02-22T02:26:16.702Z,996.53
2016-02-22T02:27:16.689Z,996.58
2016-02-22T02:28:16.660Z,996.54
2016-02-22T02:29:16.632Z,996.58
2016-02-22T02:30:16.604Z,996.63
2016-02-22T02:31:16.590Z,996.53
2016-02-22T02:32:16.562Z,996.47
2016-02-22T02:33:16.533Z,996.51
2016-02-22T02:34:16.504Z,996.52
2016-02-22T02:35:16.492Z,996.48
2016-02-22T02:36:16.463Z,996.56
2016-02-22T02:37:16.434Z,996.56
2016-02-22T02:38:16.421Z,996.52
2016-02-22T02:39:16.393Z,996.58
2016-02-22T02:40:16.380Z,996.52
2016-02-22T02:41:16.351Z,996.62
2016-02-22T02:42:16.323Z,996.68
2016-02-22T02:43:16.294Z,996.5
2016-02-22T02:44:16.281Z,996.61
2016-02-22T02:45:16.252Z,996.57
2016-02-22T02:46:16.239Z,996.66
2016-02-22T02:47:16.195Z,996.64
2016-02-22T02:48:16.182Z,996.48
2016-02-22T02:49:16.169Z,996.5
2016-02-22T02:50:16.125Z,996.55
2016-02-22T02:51:16.127Z,996.58
2016-02-22T02:52:16.083Z,996.51
2016-02-22T02:53:16.055Z,996.56
2016-02-22T02:54:16.042Z,996.53
2016-02-22T02:55:16.013Z,996.62
2016-02-22T02:56:15.985Z,996.52
2016-02-22T02:57:15.972Z,996.65
2016-02-22T02:58:15.943Z,996.73
2016-02-22T02:59:15.915Z,996.51
2016-02-22T03:00:15.902Z,996.58
2016-02-22T03:01:15.873Z,996.58
2016-02-22T03:02:15.860Z,996.64
2016-02-22T03:03:15.817Z,996.6
2016-02-22T03:04:15.804Z,996.6
2016-02-22T03:05:15.776Z,996.59
2016-02-22T03:06:15.762Z,996.66
2016-02-22T03:07:15.734Z,996.54
2016-02-22T03:08:15.706Z,996.64
2016-02-22T03:09:15.676Z,996.74
2016-02-22T03:10:15.664Z,996.6
2016-02-22T03:11:15.635Z,996.73
2016-02-22T03:12:15.622Z,996.63
2016-02-22T03:13:15.594Z,996.67
2016-02-22T03:14:15.564Z,996.65
2016-02-22T03:15:15.537Z,996.66
2016-02-22T03:16:15.523Z,996.71
2016-02-22T03:17:15.494Z,996.73
2016-02-22T03:18:15.466Z,996.67
2016-02-22T03:19:15.454Z,996.68
2016-02-22T03:20:15.425Z,996.65
2016-02-22T03:21:15.396Z,996.64
2016-02-22T03:22:15.384Z,996.59
2016-02-22T03:23:15.355Z,996.62
2016-02-22T03:24:15.341Z,996.58
2016-02-22T03:25:15.297Z,996.49
2016-02-22T03:26:15.285Z,996.54
2016-02-22T03:27:15.257Z,996.48
2016-02-22T03:28:15.227Z,996.5
2016-02-22T03:29:15.215Z,996.5
2016-02-22T03:30:15.202Z,996.59
2016-02-22T03:31:15.174Z,996.44
2016-02-22T03:32:15.160Z,996.5
2016-02-22T03:33:15.116Z,996.51
2016-02-22T03:34:15.088Z,996.44
2016-02-22T03:35:15.074Z,996.53
2016-02-22T03:36:15.046Z,996.44
2016-02-22T03:37:15.033Z,996.51
2016-02-22T03:38:15.004Z,996.48
2016-02-22T03:39:14.976Z,996.42
2016-02-22T03:40:14.948Z,996.39
2016-02-22T03:41:14.934Z,996.43
2016-02-22T03:42:14.906Z,996.34
2016-02-22T03:43:14.893Z,996.31
2016-02-22T03:44:14.848Z,996.32
2016-02-22T03:45:14.836Z,996.37
2016-02-22T03:46:14.839Z,996.35
2016-02-22T03:47:14.795Z,996.3
2016-02-22T03:48:14.766Z,996.42
2016-02-22T03:49:14.737Z,996.34
2016-02-22T03:50:14.724Z,996.4
2016-02-22T03:51:14.696Z,996.36
2016-02-22T03:52:14.667Z,996.42
2016-02-22T03:53:14.655Z,996.36
2016-02-22T03:54:14.625Z,996.38
2016-02-22T03:55:14.597Z,996.46
2016-02-22T03:56:14.585Z,996.3
2016-02-22T03:57:14.572Z,996.5
2016-02-22T03:58:14.527Z,996.3
2016-02-22T03:59:14.514Z,996.36
2016-02-22T04:00:14.486Z,996.47
2016-02-22T04:01:14.457Z,996.41
2016-02-22T04:02:14.429Z,996.39
2016-02-22T04:03:14.416Z,996.38
2016-02-22T04:04:14.371Z,996.37
2016-02-22T04:05:14.374Z,996.32
2016-02-22T04:06:14.330Z,996.38
2016-02-22T04:07:14.301Z,996.38
2016-02-22T04:08:14.288Z,996.45
2016-02-22T04:09:14.260Z,996.33
2016-02-22T04:10:14.247Z,996.36
2016-02-22T04:11:14.203Z,996.47
2016-02-22T04:12:14.190Z,996.39
2016-02-22T04:13:14.177Z,996.34
2016-02-22T04:14:14.133Z,996.37
2016-02-22T04:15:14.120Z,996.32
2016-02-22T04:16:14.092Z,996.44
2016-02-22T04:17:14.062Z,996.5
2016-02-22T04:18:14.050Z,996.43
2016-02-22T04:19:14.021Z,996.32
2016-02-22T04:20:13.992Z,996.38
2016-02-22T04:21:13.995Z,996.38
2016-02-22T04:22:13.950Z,996.23
2016-02-22T04:23:13.938Z,996.3
2016-02-22T04:24:13.894Z,996.23
2016-02-22T04:25:13.896Z,996.24
2016-02-22T04:26:13.852Z,996.29
2016-02-22T04:27:13.824Z,996.26
2016-02-22T04:28:13.810Z,996.23
2016-02-22T04:29:13.782Z,996.24
2016-02-22T04:30:13.754Z,996.18
2016-02-22T04:31:13.725Z,996.16
2016-02-22T04:32:13.712Z,996.23
2016-02-22T04:33:13.684Z,996.12
2016-02-22T04:34:13.655Z,996.25
2016-02-22T04:35:13.626Z,996.18
2016-02-22T04:36:13.613Z,996.26
2016-02-22T04:37:13.585Z,996.26
2016-02-22T04:38:13.573Z,996.29
2016-02-22T04:39:13.543Z,996.28
2016-02-22T04:40:13.515Z,996.23
2016-02-22T04:41:13.595Z,996.23
2016-02-22T04:42:13.474Z,996.23
2016-02-22T04:43:13.445Z,996.17
2016-02-22T04:44:13.416Z,996.28
2016-02-22T04:45:13.388Z,996.24
2016-02-22T04:46:13.375Z,996.27
2016-02-22T04:47:13.347Z,996.17
2016-02-22T04:48:13.333Z,996.05
2016-02-22T04:49:13.306Z,996.3
2016-02-22T04:50:13.276Z,996.22
2016-02-22T04:51:13.247Z,996.14
2016-02-22T04:52:13.219Z,996.14
2016-02-22T04:53:13.205Z,996.21
2016-02-22T04:54:13.194Z,996.18
2016-02-22T04:55:13.164Z,996.13
2016-02-22T04:56:13.167Z,996.11
2016-02-22T04:57:13.155Z,996.14
2016-02-22T04:58:13.079Z,996.12
2016-02-22T04:59:13.066Z,996.15
2016-02-22T05:00:13.037Z,996.11
2016-02-22T05:01:13.010Z,996.1
2016-02-22T05:02:12.996Z,996.06
2016-02-22T05:03:12.968Z,996.17
2016-02-22T05:04:12.955Z,996.21
2016-02-22T05:05:12.912Z,996.04
2016-02-22T05:06:12.884Z,996.08
2016-02-22T05:07:12.871Z,996.08
2016-02-22T05:08:12.842Z,996.09
2016-02-22T05:09:12.845Z,996.17
2016-02-22T05:10:12.801Z,996.01
2016-02-22T05:11:12.772Z,995.94
2016-02-22T05:12:12.744Z,995.94
2016-02-22T05:13:12.747Z,996.05
2016-02-22T05:14:12.703Z,996.09
2016-02-22T05:15:12.673Z,996.07
2016-02-22T05:16:12.661Z,996.01
2016-02-22T05:17:12.633Z,996.11
2016-02-22T05:18:12.603Z,995.88
2016-02-22T05:19:12.590Z,996.08
2016-02-22T05:20:12.546Z,996.01
2016-02-22T05:21:12.534Z,995.92
2016-02-22T05:22:12.505Z,996.05
2016-02-22T05:23:12.491Z,996.13
2016-02-22T05:24:12.464Z,996.15
2016-02-22T05:25:12.435Z,996.02
2016-02-22T05:26:12.406Z,996.06
2016-02-22T05:27:12.393Z,996.16
2016-02-22T05:28:12.366Z,996.12
2016-02-22T05:29:12.336Z,996.07
2016-02-22T05:30:12.323Z,996.1
2016-02-22T05:31:12.295Z,996.07
2016-02-22T05:32:12.266Z,996.11
2016-02-22T05:33:12.237Z,996
2016-02-22T05:34:12.224Z,996.02
2016-02-22T05:35:12.196Z,996.05
2016-02-22T05:36:12.184Z,996.02
2016-02-22T05:37:12.154Z,996.21
2016-02-22T05:38:12.126Z,996.22
2016-02-22T05:39:12.097Z,996.16
2016-02-22T05:40:12.084Z,996.26
2016-02-22T05:41:12.056Z,996.21
2016-02-22T05:42:12.028Z,996.11
2016-02-22T05:43:11.998Z,996.21
2016-02-22T05:44:11.986Z,996.22
2016-02-22T05:45:11.958Z,996.2
2016-02-22T05:46:11.928Z,996.2
2016-02-22T05:47:11.900Z,996.28
2016-02-22T05:48:11.887Z,996.21
2016-02-22T05:49:11.859Z,996.35
2016-02-22T05:50:11.830Z,996.24
2016-02-22T05:51:11.817Z,996.18
2016-02-22T05:52:11.789Z,996.26
2016-02-22T05:53:11.760Z,996.2
2016-02-22T05:54:11.747Z,996.28
2016-02-22T05:55:11.719Z,996.3
2016-02-22T05:56:11.691Z,996.37
2016-02-22T05:57:11.677Z,996.22
2016-02-22T05:58:11.648Z,996.17
2016-02-22T05:59:11.621Z,996.26
2016-02-22T06:00:11.591Z,996.27
2016-02-22T06:01:11.579Z,996.14
2016-02-22T06:02:11.549Z,996.16
2016-02-22T06:03:11.522Z,996.16
2016-02-22T06:04:11.493Z,996.18
2016-02-22T06:05:11.479Z,996.16
2016-02-22T06:06:11.452Z,995.98
2016-02-22T06:07:11.423Z,996.13
2016-02-22T06:08:11.409Z,996.07
2016-02-22T06:09:11.377Z,996.04
2016-02-22T06:10:11.337Z,996.04
2016-02-22T06:11:11.294Z,996.24
2016-02-22T06:12:11.269Z,996.21
2016-02-22T06:13:11.229Z,996.17
2016-02-22T06:14:11.189Z,996.21
2016-02-22T06:15:11.172Z,996.13
2016-02-22T06:16:11.138Z,996.15
2016-02-22T06:17:11.106Z,996.16
2016-02-22T06:18:11.088Z,996.1
2016-02-22T06:19:11.055Z,996.11
2016-02-22T06:20:11.026Z,996.11
2016-02-22T06:21:10.996Z,996.13
2016-02-22T06:22:10.980Z,996.07
2016-02-22T06:23:10.951Z,996.07
2016-02-22T06:24:10.922Z,996.07
2016-02-22T06:25:10.907Z,996.05
2016-02-22T06:26:10.878Z,996.07
2016-02-22T06:27:10.849Z,996.05
2016-02-22T06:28:10.819Z,996.06
2016-02-22T06:29:10.806Z,996.04
2016-02-22T06:30:10.776Z,996.03
2016-02-22T06:31:10.748Z,996.13
2016-02-22T06:32:10.719Z,996.09
2016-02-22T06:33:10.721Z,996.12
2016-02-22T06:34:10.693Z,996.09
2016-02-22T06:35:10.663Z,996.15
2016-02-22T06:36:10.635Z,996.19
2016-02-22T06:37:10.607Z,996.17
2016-02-22T06:38:10.578Z,996.21
2016-02-22T06:39:10.565Z,996.19
2016-02-22T06:40:10.537Z,996.24
2016-02-22T06:41:10.509Z,996.23
2016-02-22T06:42:10.495Z,996.17
2016-02-22T06:43:10.481Z,996.37
2016-02-22T06:44:10.454Z,996.3
2016-02-22T06:45:10.425Z,996.27
2016-02-22T06:46:10.378Z,996.29
2016-02-22T06:47:10.365Z,996.28
2016-02-22T06:48:10.337Z,996.28
2016-02-22T06:49:10.309Z,996.27
2016-02-22T06:50:10.295Z,996.23
2016-02-22T06:51:10.266Z,996.21
2016-02-22T06:52:10.238Z,996.23
2016-02-22T06:53:10.210Z,996.24
2016-02-22T06:54:10.212Z,996.3
2016-02-22T06:55:10.168Z,996.34
2016-02-22T06:56:10.139Z,996.23
2016-02-22T06:57:10.127Z,996.25
2016-02-22T06:58:10.097Z,996.25
2016-02-22T06:59:10.069Z,996.22
2016-02-22T07:00:10.057Z,996.22
2016-02-22T07:01:10.028Z,996.23
2016-02-22T07:02:09.999Z,996.23
2016-02-22T07:03:09.986Z,996.27
2016-02-22T07:04:09.974Z,996.28
2016-02-22T07:05:09.929Z,996.23
2016-02-22T07:06:09.901Z,996.26
2016-02-22T07:07:09.888Z,996.36
2016-02-22T07:08:09.860Z,996.32
2016-02-22T07:09:09.831Z,996.31
2016-02-22T07:10:09.818Z,996.29
2016-02-22T07:11:09.789Z,996.38
2016-02-22T07:12:09.760Z,996.35
2016-02-22T07:13:09.748Z,996.3
2016-02-22T07:14:09.719Z,996.46
2016-02-22T07:15:09.706Z,996.34
2016-02-22T07:16:09.662Z,996.44
2016-02-22T07:17:09.649Z,996.41
2016-02-22T07:18:09.636Z,996.27
2016-02-22T07:19:09.592Z,996.35
2016-02-22T07:20:09.767Z,996.31
2016-02-22T07:21:09.550Z,996.28
2016-02-22T07:22:09.522Z,996.32
2016-02-22T07:23:09.493Z,996.33
2016-02-22T07:24:09.481Z,996.22
2016-02-22T07:25:09.452Z,996.27
2016-02-22T07:26:09.422Z,996.28
2016-02-22T07:27:09.395Z,996.25
2016-02-22T07:28:09.382Z,996.26
2016-02-22T07:29:09.353Z,996.19
2016-02-22T07:30:09.340Z,996.21
2016-02-22T07:31:09.312Z,996.26
2016-02-22T07:32:09.346Z,996.19
2016-02-22T07:33:09.254Z,996.22
2016-02-22T07:34:09.242Z,996.28
2016-02-22T07:35:09.213Z,996.18
2016-02-22T07:36:09.185Z,996.16
2016-02-22T07:37:09.171Z,996.24
2016-02-22T07:38:09.143Z,996.2
2016-02-22T07:39:09.130Z,996.28
2016-02-22T07:40:09.117Z,996.22
2016-02-22T07:41:09.073Z,996.26
2016-02-22T07:42:09.045Z,996.19
2016-02-22T07:43:09.016Z,996.2
2016-02-22T07:44:09.003Z,996.2
2016-02-22T07:45:08.974Z,996.18
2016-02-22T07:46:08.946Z,996.17
2016-02-22T07:47:08.948Z,996.22
2016-02-22T07:48:08.904Z,996.27
2016-02-22T07:49:08.876Z,996.2
2016-02-22T07:50:08.847Z,996.23
2016-02-22T07:51:08.834Z,996.14
2016-02-22T07:52:08.806Z,996.21
2016-02-22T07:53:08.793Z,996.2
2016-02-22T07:54:08.764Z,996.23
2016-02-22T07:55:08.751Z,996.34
2016-02-22T07:56:08.708Z,996.19
2016-02-22T07:57:08.678Z,996.31
2016-02-22T07:58:08.666Z,996.24
2016-02-22T07:59:08.637Z,996.19
2016-02-22T08:00:08.608Z,996.22
2016-02-22T08:01:08.596Z,996.29
2016-02-22T08:02:08.567Z,996.22
2016-02-22T08:03:08.539Z,996.18
2016-02-22T08:04:08.510Z,996.18
2016-02-22T08:05:08.496Z,996.22
2016-02-22T08:06:08.469Z,996.21
2016-02-22T08:07:08.440Z,996.17
2016-02-22T08:08:08.426Z,996.19
2016-02-22T08:09:08.399Z,996.15
2016-02-22T08:10:08.371Z,996.15
2016-02-22T08:11:08.357Z,996.14
2016-02-22T08:12:08.328Z,996.14
2016-02-22T08:13:08.316Z,996.13
2016-02-22T08:14:08.271Z,996.18
2016-02-22T08:15:08.258Z,996.22
2016-02-22T08:16:08.229Z,996.11
2016-02-22T08:17:08.201Z,996.17
2016-02-22T08:18:08.188Z,996.14
2016-02-22T08:19:08.159Z,996.16
2016-02-22T08:20:08.131Z,996.23
2016-02-22T08:21:08.118Z,996.11
2016-02-22T08:22:08.090Z,996.08
2016-02-22T08:23:08.061Z,996.1
2016-02-22T08:24:08.048Z,996.2
2016-02-22T08:25:08.020Z,996.11
2016-02-22T08:26:07.991Z,996.08
2016-02-22T08:27:07.962Z,996.01
2016-02-22T08:28:07.949Z,996.05
2016-02-22T08:29:08.124Z,996.04
2016-02-22T08:30:07.892Z,996.02
2016-02-22T08:31:07.880Z,996.03
2016-02-22T08:32:07.850Z,996.02
2016-02-22T08:33:07.822Z,996.13
2016-02-22T08:34:07.810Z,996.05
2016-02-22T08:35:07.780Z,996.02
2016-02-22T08:36:07.752Z,996.03
2016-02-22T08:37:07.724Z,995.97
2016-02-22T08:38:07.710Z,996.01
2016-02-22T08:39:07.683Z,995.96
2016-02-22T08:40:07.669Z,995.93
2016-02-22T08:41:07.641Z,996
2016-02-22T08:42:07.613Z,995.96
2016-02-22T08:43:07.584Z,995.91
2016-02-22T08:44:07.571Z,995.94
2016-02-22T08:45:07.543Z,995.91
2016-02-22T08:46:07.513Z,995.95
2016-02-22T08:47:07.501Z,995.98
2016-02-22T08:48:07.473Z,996.02
2016-02-22T08:49:07.443Z,995.95
2016-02-22T08:50:07.431Z,995.9
2016-02-22T08:51:07.401Z,995.89
2016-02-22T08:52:07.374Z,995.86
2016-02-22T08:53:07.361Z,995.91
2016-02-22T08:54:07.331Z,995.89
2016-02-22T08:55:07.319Z,995.84
2016-02-22T08:56:07.274Z,995.89
2016-02-22T08:57:07.262Z,995.92
2016-02-22T08:58:07.233Z,995.94
2016-02-22T08:59:07.220Z,995.88
2016-02-22T09:00:07.191Z,995.96
2016-02-22T09:01:07.164Z,995.86
2016-02-22T09:02:07.135Z,995.88
2016-02-22T09:03:07.121Z,995.99
2016-02-22T09:04:07.093Z,995.94
2016-02-22T09:05:07.064Z,995.94
2016-02-22T09:06:07.052Z,995.93
2016-02-22T09:07:07.023Z,995.92
2016-02-22T09:08:06.994Z,995.94
2016-02-22T09:09:06.966Z,995.92
2016-02-22T09:10:06.953Z,995.9
2016-02-22T09:11:06.924Z,995.88
2016-02-22T09:12:06.896Z,995.93
2016-02-22T09:13:06.883Z,995.93
2016-02-22T09:14:06.854Z,995.87
2016-02-22T09:15:06.826Z,995.88
2016-02-22T09:16:06.797Z,995.92
2016-02-22T09:17:06.800Z,995.95
2016-02-22T09:18:06.756Z,996.02
2016-02-22T09:19:06.727Z,995.92
2016-02-22T09:20:06.715Z,996
2016-02-22T09:21:06.686Z,995.98
2016-02-22T09:22:06.689Z,995.93
2016-02-22T09:23:06.644Z,996.03
2016-02-22T09:24:06.631Z,996.02
2016-02-22T09:25:06.650Z,995.96
2016-02-22T09:26:06.808Z,996
2016-02-22T09:27:06.545Z,996.04
2016-02-22T09:28:06.517Z,996.1
2016-02-22T09:29:06.504Z,996.11
2016-02-22T09:30:06.475Z,996.02
2016-02-22T09:31:06.447Z,996.05
2016-02-22T09:32:06.434Z,996.03
2016-02-22T09:33:06.405Z,996.01
2016-02-22T09:34:06.377Z,996.05
2016-02-22T09:35:06.349Z,996.06
2016-02-22T09:36:06.335Z,996.03
2016-02-22T09:37:06.307Z,996.07
2016-02-22T09:38:06.294Z,996.11
2016-02-22T09:39:06.266Z,996.12
2016-02-22T09:40:06.237Z,996.27
2016-02-22T09:41:06.240Z,996.18
2016-02-22T09:42:06.211Z,996.21
2016-02-22T09:43:06.166Z,996.19
2016-02-22T09:44:06.138Z,996.17
2016-02-22T09:45:06.171Z,996.18
2016-02-22T09:46:06.097Z,996.16
2016-02-22T09:47:06.068Z,996.22
2016-02-22T09:48:06.054Z,996.28
2016-02-22T09:49:06.026Z,996.17
2016-02-22T09:50:05.998Z,996.22
2016-02-22T09:51:05.970Z,996.22
2016-02-22T09:52:05.956Z,996.21
2016-02-22T09:53:05.929Z,996.23
2016-02-22T09:54:05.899Z,996.31
2016-02-22T09:55:05.887Z,996.31
2016-02-22T09:56:05.858Z,996.32
2016-02-22T09:57:05.828Z,996.28
2016-02-22T09:58:05.817Z,996.3
2016-02-22T09:59:05.804Z,996.34
2016-02-22T10:00:05.759Z,996.33
2016-02-22T10:01:05.731Z,996.31
2016-02-22T10:02:05.717Z,996.35
2016-02-22T10:03:05.689Z,996.35
2016-02-22T10:04:05.661Z,996.34
2016-02-22T10:05:05.647Z,996.39
2016-02-22T10:06:05.619Z,996.4
2016-02-22T10:07:05.591Z,996.43
2016-02-22T10:08:05.577Z,996.41
2016-02-22T10:09:05.549Z,996.39
2016-02-22T10:10:05.520Z,996.46
2016-02-22T10:11:05.507Z,996.53
2016-02-22T10:12:05.479Z,996.57
2016-02-22T10:13:05.451Z,996.55
2016-02-22T10:14:05.421Z,996.53
2016-02-22T10:15:05.410Z,996.61
2016-02-22T10:16:05.380Z,996.61
2016-02-22T10:17:05.351Z,996.56
2016-02-22T10:18:05.340Z,996.6
2016-02-22T10:19:05.310Z,996.66
2016-02-22T10:20:05.298Z,996.65
2016-02-22T10:21:05.315Z,996.64
2016-02-22T10:22:05.256Z,996.77
2016-02-22T10:23:05.212Z,996.72
2016-02-22T10:24:05.199Z,996.7
2016-02-22T10:25:05.170Z,996.73
2016-02-22T10:26:05.142Z,996.75
2016-02-22T10:27:05.129Z,996.72
2016-02-22T10:28:05.100Z,996.73
2016-02-22T10:29:05.072Z,996.74
2016-02-22T10:30:05.058Z,996.76
2016-02-22T10:31:05.030Z,996.79
2016-02-22T10:32:05.002Z,996.83
2016-02-22T10:33:04.989Z,996.86
2016-02-22T10:34:04.960Z,996.91
2016-02-22T10:35:04.931Z,996.97
2016-02-22T10:36:04.903Z,996.94
2016-02-22T10:37:04.890Z,996.94
2016-02-22T10:38:04.861Z,996.98
2016-02-22T10:39:04.833Z,997.03
2016-02-22T10:40:04.820Z,997.05
2016-02-22T10:41:04.807Z,997.11
2016-02-22T10:42:04.763Z,997.11
2016-02-22T10:43:04.734Z,997.08
2016-02-22T10:44:04.721Z,997.07
2016-02-22T10:45:04.693Z,997.05
2016-02-22T10:46:04.680Z,997.1
2016-02-22T10:47:04.651Z,997.09
2016-02-22T10:48:04.623Z,997.09
2016-02-22T10:49:04.594Z,997.06
2016-02-22T10:50:04.581Z,997.12
2016-02-22T10:51:04.553Z,997.09
2016-02-22T10:52:04.524Z,997.06
2016-02-22T10:53:04.543Z,997.04
2016-02-22T10:54:04.482Z,997.07
2016-02-22T10:55:04.470Z,997.09
2016-02-22T10:56:04.442Z,997.05
2016-02-22T10:57:04.412Z,997.12
2016-02-22T10:58:04.384Z,997.07
2016-02-22T10:59:04.371Z,997.09
2016-02-22T11:00:04.343Z,997.08
2016-02-22T11:01:04.314Z,997.08
2016-02-22T11:02:04.286Z,997.14
2016-02-22T11:03:04.272Z,997.09
2016-02-22T11:04:04.244Z,997.15
2016-02-22T11:05:04.216Z,997.14
2016-02-22T11:06:04.203Z,997.18
2016-02-22T11:07:04.174Z,997.21
2016-02-22T11:08:04.145Z,997.16
2016-02-22T11:09:04.116Z,997.23
2016-02-22T11:10:04.104Z,997.17
2016-02-22T11:11:04.075Z,997.2
2016-02-22T11:12:04.046Z,997.21
2016-02-22T11:13:04.033Z,997.24
2016-02-22T11:14:04.005Z,997.22
2016-02-22T11:15:03.993Z,997.19
2016-02-22T11:16:04.088Z,997.18
2016-02-22T11:17:03.998Z,997.18
2016-02-22T11:18:03.921Z,997.19
2016-02-22T11:19:03.894Z,997.2
2016-02-22T11:20:03.865Z,997.18
2016-02-22T11:21:03.837Z,997.19
2016-02-22T11:22:03.807Z,997.17
2016-02-22T11:23:03.795Z,997.15
2016-02-22T11:24:03.767Z,997.14
2016-02-22T11:25:03.738Z,997.14
2016-02-22T11:26:03.725Z,997.09
2016-02-22T11:27:03.696Z,997.09
2016-02-22T11:28:03.668Z,997.11
2016-02-22T11:29:03.639Z,997.13
2016-02-22T11:30:03.626Z,997.09
2016-02-22T11:31:03.597Z,997.12
2016-02-22T11:32:03.570Z,997.11
2016-02-22T11:33:03.556Z,997.12
2016-02-22T11:34:03.528Z,997.11
2016-02-22T11:35:03.499Z,997.14
2016-02-22T11:36:03.486Z,997.12
2016-02-22T11:37:03.473Z,997.09
2016-02-22T11:38:03.444Z,997.08
2016-02-22T11:39:03.416Z,997.09
2016-02-22T11:40:03.388Z,997.1
2016-02-22T11:41:03.359Z,997.13
2016-02-22T11:42:03.330Z,997.12
2016-02-22T11:43:03.318Z,997.09
2016-02-22T11:44:03.288Z,997.1
2016-02-22T11:45:03.261Z,997.1
2016-02-22T11:46:03.232Z,997.16
2016-02-22T11:47:03.219Z,997.1
2016-02-22T11:48:03.190Z,997.13
2016-02-22T11:49:03.177Z,997.11
2016-02-22T11:50:03.149Z,997.16
2016-02-22T11:51:03.121Z,997.14
2016-02-22T11:52:03.092Z,997.14
2016-02-22T11:53:03.078Z,997.15
2016-02-22T11:54:03.051Z,997.12
2016-02-22T11:55:03.021Z,997.09
2016-02-22T11:56:03.009Z,997.13
2016-02-22T11:57:02.980Z,997.11
2016-02-22T11:58:02.968Z,997.1
2016-02-22T11:59:02.939Z,997.1
2016-02-22T12:00:02.910Z,997.11
2016-02-22T12:01:02.881Z,997.09
2016-02-22T12:02:02.853Z,997.09
2016-02-22T12:03:02.840Z,997.1
2016-02-22T12:04:02.811Z,997.12
2016-02-22T12:05:02.798Z,997.13
2016-02-22T12:06:02.769Z,997.1
2016-02-22T12:07:02.742Z,997.09
2016-02-22T12:08:02.713Z,997.09
2016-02-22T12:09:02.700Z,997.05
2016-02-22T12:10:02.671Z,997.11
2016-02-22T12:11:02.659Z,997.09
2016-02-22T12:12:02.630Z,997.02
2016-02-22T12:13:02.602Z,997.01
2016-02-22T12:14:02.744Z,997.04
2016-02-22T12:15:02.559Z,997.05
2016-02-22T12:16:02.532Z,997.02
2016-02-22T12:17:02.503Z,997.02
2016-02-22T12:18:02.474Z,997.02
2016-02-22T12:19:02.460Z,997
2016-02-22T12:20:02.433Z,996.97
2016-02-22T12:21:02.420Z,996.99
2016-02-22T12:22:02.391Z,997
2016-02-22T12:23:02.362Z,996.96
2016-02-22T12:24:02.335Z,996.93
2016-02-22T12:25:02.321Z,996.96
2016-02-22T12:26:02.293Z,997.01
2016-02-22T12:27:02.264Z,997.02
2016-02-22T12:28:02.234Z,996.99
2016-02-22T12:29:02.223Z,997.01
2016-02-22T12:30:02.195Z,997.01
2016-02-22T12:31:02.181Z,997